Abis Cuxhaven — PBYB — position and weather

sailwx.info

Track history (hours):
 
Tides and Currents Weather Stations Pressure Air Temp Water Temp Dewpoint Dewpoint Depression Visibility Wind Speed Wind Dir Waves Ship Positions

Abis Cuxhaven

Last reported at 2015-Aug-04 02:33 UTC. Time now 2015-Aug-04 03:26 UTC.
Position N 56°09' E 010°14'.

Length 114 m; draft 4.1 m.

Type: Cargo ship. MMSI: 246670000.

Date/timePositionNaut miles runAvg speedWind from/ knotsBaromVisibWave heightAir tempDewpointWater temp
2015-Aug-04 02:33N 56°09' E 010°14'0 0.0
2015-Aug-04 01:33N 56°09' E 010°14'0 0.0
2015-Aug-04 00:33N 56°09' E 010°14'0 0.0
2015-Aug-03 23:33N 56°09' E 010°14'0 0.0
2015-Aug-03 22:33N 56°09' E 010°14'0 0.0
2015-Aug-03 21:33N 56°09' E 010°14'0 0.0
2015-Aug-03 20:34N 56°09' E 010°14'0 0.0
2015-Aug-03 19:33N 56°09' E 010°14'0 0.0
2015-Aug-03 18:33N 56°09' E 010°14'0 0.0
2015-Aug-03 17:33N 56°09' E 010°14'0 0.0
2015-Aug-03 16:34N 56°09' E 010°14'0 0.0
2015-Aug-03 15:33N 56°09' E 010°14'0 0.0
2015-Aug-03 14:33N 56°09' E 010°14'0 0.0
2015-Aug-03 13:33N 56°09' E 010°14'0 0.0
2015-Aug-03 12:34N 56°09' E 010°14'0 0.0
2015-Aug-03 11:33N 56°09' E 010°14'0 0.0
2015-Aug-03 10:33N 56°09' E 010°14'0 0.0
2015-Aug-03 09:33N 56°09' E 010°14'0 0.0
2015-Aug-03 08:33N 56°09' E 010°14'2 2.0
2015-Aug-03 07:33N 56°09' E 010°17'9 9.4
2015-Aug-03 06:33N 56°05' E 010°33'9 9.4
2015-Aug-03 05:33N 56°03' E 010°49'10 8.2
2015-Aug-03 04:17N 56°09' E 011°05'5 7.6
2015-Aug-03 03:33N 56°14' E 011°05'8 7.7
2015-Aug-03 02:33N 56°22' E 011°05'8 7.3
2015-Aug-03 01:30N 56°29' E 011°04'8 7.2
2015-Aug-03 00:28N 56°37' E 011°02'7 7.5
2015-Aug-02 23:31N 56°44' E 010°59'8 8.3
2015-Aug-02 22:33N 56°50' E 010°49'8 7.7
2015-Aug-02 21:33N 56°57' E 010°51'8 8.3
2015-Aug-02 20:33N 57°05' E 010°48'9 8.6
2015-Aug-02 19:31N 57°14' E 010°43'8 8.2
2015-Aug-02 18:33N 57°22' E 010°43'8 8.2
2015-Aug-02 17:32N 57°30' E 010°43'8 8.2
2015-Aug-02 16:31N 57°38' E 010°45'8 7.9
2015-Aug-02 15:33N 57°46' E 010°46'9 9.1
2015-Aug-02 14:33N 57°45' E 010°29'87 9.2
2015-Aug-02 05:10N 57°01' E 008°11'68 8.8
2015-Aug-01 21:25N 56°19' E 006°33'214 8.8
2015-Jul-31 21:04N 54°08' E 001°37'5 9.1
2015-Jul-31 20:33N 54°05' E 001°31'9 9.5
2015-Jul-31 19:33N 53°58' E 001°19'9 9.4
2015-Jul-31 18:33N 53°53' E 001°05'9 9.2
2015-Jul-31 17:32N 53°48' E 000°52'9 8.9
2015-Jul-31 16:33N 53°43' E 000°40'8 8.4
2015-Jul-31 15:33N 53°39' E 000°28'4 3.7
2015-Jul-31 14:31N 53°37' E 000°22'0 0.1
2015-Jul-31 13:28N 53°37' E 000°22'0 0.1
2015-Jul-31 12:25N 53°37' E 000°22'0 0.0
2015-Jul-31 11:28N 53°37' E 000°22'0 0.0
2015-Jul-31 10:25N 53°37' E 000°22'0 0.0
2015-Jul-31 09:28N 53°37' E 000°22'0 0.0
2015-Jul-31 08:31N 53°37' E 000°22'0 0.1
2015-Jul-31 07:31N 53°37' E 000°22'0 0.2
2015-Jul-31 06:31N 53°37' E 000°22'0 0.1
2015-Jul-31 05:31N 53°37' E 000°22'0 0.0
2015-Jul-31 04:31N 53°37' E 000°22'0 0.0
2015-Jul-31 03:31N 53°37' E 000°22'0 0.0
2015-Jul-31 02:31N 53°37' E 000°22'0 0.0
2015-Jul-31 01:31N 53°37' E 000°22'0 0.0
2015-Jul-31 00:31N 53°37' E 000°22'0 0.1
2015-Jul-30 23:22N 53°37' E 000°22'0 0.0
2015-Jul-30 22:28N 53°37' E 000°22'0 0.0
2015-Jul-30 21:31N 53°37' E 000°22'0 0.0
2015-Jul-30 20:28N 53°37' E 000°22'0 0.0
2015-Jul-30 19:28N 53°37' E 000°22'0 0.2
2015-Jul-30 18:31N 53°37' E 000°22'6 6.1
2015-Jul-30 17:33N 53°33' E 000°15'10 9.9
2015-Jul-30 16:33N 53°35' W 000°01'6 6.4
2015-Jul-30 15:33N 53°38' W 000°11'0 0.2
2015-Jul-30 14:33N 53°38' W 000°11'0 0.0
2015-Jul-30 13:33N 53°38' W 000°11'0 0.0
2015-Jul-30 12:34N 53°38' W 000°11'0 0.0
2015-Jul-30 11:33N 53°38' W 000°11'0 0.0
2015-Jul-30 10:31N 53°38' W 000°11'0 0.0
2015-Jul-30 09:34N 53°38' W 000°11'0 0.0
2015-Jul-30 08:34N 53°38' W 000°11'0 0.0
2015-Jul-30 07:33N 53°38' W 000°11'0 0.0
2015-Jul-30 06:34N 53°38' W 000°11'0 0.0
2015-Jul-30 05:33N 53°38' W 000°11'0 0.0
2015-Jul-30 04:33N 53°38' W 000°11'0 0.0
2015-Jul-30 03:33N 53°38' W 000°11'0 0.0
2015-Jul-30 02:34N 53°38' W 000°11'0 0.0
2015-Jul-30 01:34N 53°38' W 000°11'0 0.0
2015-Jul-30 00:34N 53°38' W 000°11'0 0.0
2015-Jul-29 23:33N 53°38' W 000°11'0 0.0
2015-Jul-29 22:33N 53°38' W 000°11'0 0.0
2015-Jul-29 21:33N 53°38' W 000°11'0 0.0
2015-Jul-29 20:33N 53°38' W 000°11'0 0.0
2015-Jul-29 19:34N 53°38' W 000°11'0 0.0
2015-Jul-29 18:33N 53°38' W 000°11'0 0.0
2015-Jul-29 17:33N 53°38' W 000°11'0 0.0
2015-Jul-29 16:33N 53°38' W 000°11'0 0.0
2015-Jul-29 15:33N 53°38' W 000°11'0 0.0
2015-Jul-29 14:34N 53°38' W 000°11'0 0.0
2015-Jul-29 13:34N 53°38' W 000°11'0 0.0
2015-Jul-29 12:33N 53°38' W 000°11'0 0.0
2015-Jul-29 11:30N 53°38' W 000°11'0 0.0
2015-Jul-29 10:33N 53°38' W 000°11'0 0.0
2015-Jul-29 09:33N 53°38' W 000°11'0 0.0
2015-Jul-29 08:33N 53°38' W 000°11'0 0.0
2015-Jul-29 07:34N 53°38' W 000°11'0 0.0
2015-Jul-29 06:33N 53°38' W 000°11'0 0.0
2015-Jul-29 05:33N 53°38' W 000°11'0 0.0
2015-Jul-29 04:33N 53°38' W 000°11'0 0.0
2015-Jul-29 03:34N 53°38' W 000°11'0 0.0
2015-Jul-29 02:33N 53°38' W 000°11'0 0.0
2015-Jul-29 01:34N 53°38' W 000°11'0 0.0
2015-Jul-29 00:33N 53°38' W 000°11'0 0.0
2015-Jul-28 23:33N 53°38' W 000°11'0 0.0
2015-Jul-28 22:33N 53°38' W 000°11'0 0.0
2015-Jul-28 21:33N 53°38' W 000°11'0 0.0
2015-Jul-28 20:33N 53°38' W 000°11'0 0.0
2015-Jul-28 19:33N 53°38' W 000°11'0 0.0
2015-Jul-28 18:33N 53°38' W 000°11'0 0.0
2015-Jul-28 17:33N 53°38' W 000°11'0 0.0
2015-Jul-28 16:30N 53°38' W 000°11'0 0.0
2015-Jul-28 15:30N 53°38' W 000°11'0 0.0
2015-Jul-28 14:33N 53°38' W 000°11'0 0.3
2015-Jul-28 13:33N 53°38' W 000°11'6 5.9
2015-Jul-28 12:33N 53°36' W 000°02'1110.7
2015-Jul-28 11:34N 53°33' E 000°15'6 5.7
2015-Jul-28 10:33N 53°36' E 000°24'0 0.1
2015-Jul-28 09:33N 53°36' E 000°24'0 0.0
2015-Jul-28 08:27N 53°36' E 000°24'0 0.0
2015-Jul-28 07:30N 53°36' E 000°24'0 0.0
2015-Jul-28 06:33N 53°36' E 000°24'0 0.0
2015-Jul-28 05:33N 53°36' E 000°24'0 0.2
2015-Jul-28 04:27N 53°36' E 000°24'0 0.0
2015-Jul-28 03:30N 53°36' E 000°24'0 0.0
2015-Jul-28 02:27N 53°36' E 000°24'0 0.0
2015-Jul-28 01:30N 53°36' E 000°24'0 0.0
2015-Jul-28 00:30N 53°36' E 000°24'0 0.0
2015-Jul-27 23:30N 53°36' E 000°24'0 0.0
2015-Jul-27 22:33N 53°36' E 000°24'0 0.1
2015-Jul-27 21:33N 53°36' E 000°24'0 0.1
2015-Jul-27 20:33N 53°36' E 000°24'0 0.0
2015-Jul-27 19:24N 53°36' E 000°24'0 0.0
2015-Jul-27 18:33N 53°36' E 000°24'0 0.0
2015-Jul-27 17:33N 53°36' E 000°24'0 0.2
2015-Jul-27 16:30N 53°36' E 000°24'0 0.0
2015-Jul-27 15:33N 53°36' E 000°24'0 0.0
2015-Jul-27 14:30N 53°36' E 000°24'2 2.6
2015-Jul-27 13:33N 53°38' E 000°26'9 9.1
2015-Jul-27 12:33N 53°44' E 000°38'303 8.2
2015-Jul-25 23:20N 56°53' E 007°34'810.1
2015-Jul-25 22:32N 56°57' E 007°47'1010.3
2015-Jul-25 21:33N 57°03' E 008°03'8710.3
2015-Jul-25 13:08N 57°46' E 010°23'5 9.1
2015-Jul-25 12:33N 57°48' E 010°32'9 8.9
2015-Jul-25 11:34N 57°47' E 010°48'9 9.4
2015-Jul-25 10:33N 57°41' E 011°02'10 9.6
2015-Jul-25 09:34N 57°35' E 011°16'9 8.9
2015-Jul-25 08:33N 57°28' E 011°26'10 9.7
2015-Jul-25 07:33N 57°19' E 011°32'1110.5
2015-Jul-25 06:30N 57°09' E 011°39'1010.2
2015-Jul-25 05:33N 56°59' E 011°45'10 9.7
2015-Jul-25 04:33N 56°50' E 011°51'9 9.4
2015-Jul-25 03:33N 56°41' E 011°56'  
Track history (hours):
 
Tides and Currents Weather Stations Pressure Air Temp Water Temp Dewpoint Dewpoint Depression Visibility Wind Speed Wind Dir Waves Ship Positions

Abis Cuxhaven

Last reported at 2015-Aug-04 02:33 UTC. Time now 2015-Aug-04 03:26 UTC.
Position N 56°09' E 010°14'.

Length 114 m; draft 4.1 m.

Type: Cargo ship. MMSI: 246670000.

Date/timePositionNaut miles runAvg speedWind from/ knotsBaromVisibWave heightAir tempDewpointWater temp
2015-Aug-04 02:33N 56°09' E 010°14'0 0.0
2015-Aug-04 01:33N 56°09' E 010°14'0 0.0
2015-Aug-04 00:33N 56°09' E 010°14'0 0.0
2015-Aug-03 23:33N 56°09' E 010°14'0 0.0
2015-Aug-03 22:33N 56°09' E 010°14'0 0.0
2015-Aug-03 21:33N 56°09' E 010°14'0 0.0
2015-Aug-03 20:34N 56°09' E 010°14'0 0.0
2015-Aug-03 19:33N 56°09' E 010°14'0 0.0
2015-Aug-03 18:33N 56°09' E 010°14'0 0.0
2015-Aug-03 17:33N 56°09' E 010°14'0 0.0
2015-Aug-03 16:34N 56°09' E 010°14'0 0.0
2015-Aug-03 15:33N 56°09' E 010°14'0 0.0
2015-Aug-03 14:33N 56°09' E 010°14'0 0.0
2015-Aug-03 13:33N 56°09' E 010°14'0 0.0
2015-Aug-03 12:34N 56°09' E 010°14'0 0.0
2015-Aug-03 11:33N 56°09' E 010°14'0 0.0
2015-Aug-03 10:33N 56°09' E 010°14'0 0.0
2015-Aug-03 09:33N 56°09' E 010°14'0 0.0
2015-Aug-03 08:33N 56°09' E 010°14'2 2.0
2015-Aug-03 07:33N 56°09' E 010°17'9 9.4
2015-Aug-03 06:33N 56°05' E 010°33'9 9.4
2015-Aug-03 05:33N 56°03' E 010°49'10 8.2
2015-Aug-03 04:17N 56°09' E 011°05'5 7.6
2015-Aug-03 03:33N 56°14' E 011°05'8 7.7
2015-Aug-03 02:33N 56°22' E 011°05'8 7.3
2015-Aug-03 01:30N 56°29' E 011°04'8 7.2
2015-Aug-03 00:28N 56°37' E 011°02'7 7.5
2015-Aug-02 23:31N 56°44' E 010°59'8 8.3
2015-Aug-02 22:33N 56°50' E 010°49'8 7.7
2015-Aug-02 21:33N 56°57' E 010°51'8 8.3
2015-Aug-02 20:33N 57°05' E 010°48'9 8.6
2015-Aug-02 19:31N 57°14' E 010°43'8 8.2
2015-Aug-02 18:33N 57°22' E 010°43'8 8.2
2015-Aug-02 17:32N 57°30' E 010°43'8 8.2
2015-Aug-02 16:31N 57°38' E 010°45'8 7.9
2015-Aug-02 15:33N 57°46' E 010°46'9 9.1
2015-Aug-02 14:33N 57°45' E 010°29'87 9.2
2015-Aug-02 05:10N 57°01' E 008°11'68 8.8
2015-Aug-01 21:25N 56°19' E 006°33'214 8.8
2015-Jul-31 21:04N 54°08' E 001°37'5 9.1
2015-Jul-31 20:33N 54°05' E 001°31'9 9.5
2015-Jul-31 19:33N 53°58' E 001°19'9 9.4
2015-Jul-31 18:33N 53°53' E 001°05'9 9.2
2015-Jul-31 17:32N 53°48' E 000°52'9 8.9
2015-Jul-31 16:33N 53°43' E 000°40'8 8.4
2015-Jul-31 15:33N 53°39' E 000°28'4 3.7
2015-Jul-31 14:31N 53°37' E 000°22'0 0.1
2015-Jul-31 13:28N 53°37' E 000°22'0 0.1
2015-Jul-31 12:25N 53°37' E 000°22'0 0.0
2015-Jul-31 11:28N 53°37' E 000°22'0 0.0
2015-Jul-31 10:25N 53°37' E 000°22'0 0.0
2015-Jul-31 09:28N 53°37' E 000°22'0 0.0
2015-Jul-31 08:31N 53°37' E 000°22'0 0.1
2015-Jul-31 07:31N 53°37' E 000°22'0 0.2
2015-Jul-31 06:31N 53°37' E 000°22'0 0.1
2015-Jul-31 05:31N 53°37' E 000°22'0 0.0
2015-Jul-31 04:31N 53°37' E 000°22'0 0.0
2015-Jul-31 03:31N 53°37' E 000°22'0 0.0
2015-Jul-31 02:31N 53°37' E 000°22'0 0.0
2015-Jul-31 01:31N 53°37' E 000°22'0 0.0
2015-Jul-31 00:31N 53°37' E 000°22'0 0.1
2015-Jul-30 23:22N 53°37' E 000°22'0 0.0
2015-Jul-30 22:28N 53°37' E 000°22'0 0.0
2015-Jul-30 21:31N 53°37' E 000°22'0 0.0
2015-Jul-30 20:28N 53°37' E 000°22'0 0.0
2015-Jul-30 19:28N 53°37' E 000°22'0 0.2
2015-Jul-30 18:31N 53°37' E 000°22'6 6.1
2015-Jul-30 17:33N 53°33' E 000°15'10 9.9
2015-Jul-30 16:33N 53°35' W 000°01'6 6.4
2015-Jul-30 15:33N 53°38' W 000°11'0 0.2
2015-Jul-30 14:33N 53°38' W 000°11'0 0.0
2015-Jul-30 13:33N 53°38' W 000°11'0 0.0
2015-Jul-30 12:34N 53°38' W 000°11'0 0.0
2015-Jul-30 11:33N 53°38' W 000°11'0 0.0
2015-Jul-30 10:31N 53°38' W 000°11'0 0.0
2015-Jul-30 09:34N 53°38' W 000°11'0 0.0
2015-Jul-30 08:34N 53°38' W 000°11'0 0.0
2015-Jul-30 07:33N 53°38' W 000°11'0 0.0
2015-Jul-30 06:34N 53°38' W 000°11'0 0.0
2015-Jul-30 05:33N 53°38' W 000°11'0 0.0
2015-Jul-30 04:33N 53°38' W 000°11'0 0.0
2015-Jul-30 03:33N 53°38' W 000°11'0 0.0
2015-Jul-30 02:34N 53°38' W 000°11'0 0.0
2015-Jul-30 01:34N 53°38' W 000°11'0 0.0
2015-Jul-30 00:34N 53°38' W 000°11'0 0.0
2015-Jul-29 23:33N 53°38' W 000°11'0 0.0
2015-Jul-29 22:33N 53°38' W 000°11'0 0.0
2015-Jul-29 21:33N 53°38' W 000°11'0 0.0
2015-Jul-29 20:33N 53°38' W 000°11'0 0.0
2015-Jul-29 19:34N 53°38' W 000°11'0 0.0
2015-Jul-29 18:33N 53°38' W 000°11'0 0.0
2015-Jul-29 17:33N 53°38' W 000°11'0 0.0
2015-Jul-29 16:33N 53°38' W 000°11'0 0.0
2015-Jul-29 15:33N 53°38' W 000°11'0 0.0
2015-Jul-29 14:34N 53°38' W 000°11'0 0.0
2015-Jul-29 13:34N 53°38' W 000°11'0 0.0
2015-Jul-29 12:33N 53°38' W 000°11'0 0.0
2015-Jul-29 11:30N 53°38' W 000°11'0 0.0
2015-Jul-29 10:33N 53°38' W 000°11'0 0.0
2015-Jul-29 09:33N 53°38' W 000°11'0 0.0
2015-Jul-29 08:33N 53°38' W 000°11'0 0.0
2015-Jul-29 07:34N 53°38' W 000°11'0 0.0
2015-Jul-29 06:33N 53°38' W 000°11'0 0.0
2015-Jul-29 05:33N 53°38' W 000°11'0 0.0
2015-Jul-29 04:33N 53°38' W 000°11'0 0.0
2015-Jul-29 03:34N 53°38' W 000°11'0 0.0
2015-Jul-29 02:33N 53°38' W 000°11'0 0.0
2015-Jul-29 01:34N 53°38' W 000°11'0 0.0
2015-Jul-29 00:33N 53°38' W 000°11'0 0.0
2015-Jul-28 23:33N 53°38' W 000°11'0 0.0
2015-Jul-28 22:33N 53°38' W 000°11'0 0.0
2015-Jul-28 21:33N 53°38' W 000°11'0 0.0
2015-Jul-28 20:33N 53°38' W 000°11'0 0.0
2015-Jul-28 19:33N 53°38' W 000°11'0 0.0
2015-Jul-28 18:33N 53°38' W 000°11'0 0.0
2015-Jul-28 17:33N 53°38' W 000°11'0 0.0
2015-Jul-28 16:30N 53°38' W 000°11'0 0.0
2015-Jul-28 15:30N 53°38' W 000°11'0 0.0
2015-Jul-28 14:33N 53°38' W 000°11'0 0.3
2015-Jul-28 13:33N 53°38' W 000°11'6 5.9
2015-Jul-28 12:33N 53°36' W 000°02'1110.7
2015-Jul-28 11:34N 53°33' E 000°15'6 5.7
2015-Jul-28 10:33N 53°36' E 000°24'0 0.1
2015-Jul-28 09:33N 53°36' E 000°24'0 0.0
2015-Jul-28 08:27N 53°36' E 000°24'0 0.0
2015-Jul-28 07:30N 53°36' E 000°24'0 0.0
2015-Jul-28 06:33N 53°36' E 000°24'0 0.0
2015-Jul-28 05:33N 53°36' E 000°24'0 0.2
2015-Jul-28 04:27N 53°36' E 000°24'0 0.0
2015-Jul-28 03:30N 53°36' E 000°24'0 0.0
2015-Jul-28 02:27N 53°36' E 000°24'0 0.0
2015-Jul-28 01:30N 53°36' E 000°24'0 0.0
2015-Jul-28 00:30N 53°36' E 000°24'0 0.0
2015-Jul-27 23:30N 53°36' E 000°24'0 0.0
2015-Jul-27 22:33N 53°36' E 000°24'0 0.1
2015-Jul-27 21:33N 53°36' E 000°24'0 0.1
2015-Jul-27 20:33N 53°36' E 000°24'0 0.0
2015-Jul-27 19:24N 53°36' E 000°24'0 0.0
2015-Jul-27 18:33N 53°36' E 000°24'0 0.0
2015-Jul-27 17:33N 53°36' E 000°24'0 0.2
2015-Jul-27 16:30N 53°36' E 000°24'0 0.0
2015-Jul-27 15:33N 53°36' E 000°24'0 0.0
2015-Jul-27 14:30N 53°36' E 000°24'2 2.6
2015-Jul-27 13:33N 53°38' E 000°26'9 9.1
2015-Jul-27 12:33N 53°44' E 000°38'303 8.2
2015-Jul-25 23:20N 56°53' E 007°34'810.1
2015-Jul-25 22:32N 56°57' E 007°47'1010.3
2015-Jul-25 21:33N 57°03' E 008°03'8710.3
2015-Jul-25 13:08N 57°46' E 010°23'5 9.1
2015-Jul-25 12:33N 57°48' E 010°32'9 8.9
2015-Jul-25 11:34N 57°47' E 010°48'9 9.4
2015-Jul-25 10:33N 57°41' E 011°02'10 9.6
2015-Jul-25 09:34N 57°35' E 011°16'9 8.9
2015-Jul-25 08:33N 57°28' E 011°26'10 9.7
2015-Jul-25 07:33N 57°19' E 011°32'1110.5
2015-Jul-25 06:30N 57°09' E 011°39'1010.2
2015-Jul-25 05:33N 56°59' E 011°45'10 9.7
2015-Jul-25 04:33N 56°50' E 011°51'9 9.4
2015-Jul-25 03:33N 56°41' E 011°56'  

Dump ship's entire track history